This is the latest recevied weather packets stored in our database for station/object 9W2CEW-1. If no packets are shown the sender has not sent any weather packets the latest 10 day(s).
| Time | Temp. | Humidity | Pressure | Rain* | Wind** | Luminosity | Snow |
|---|---|---|---|---|---|---|---|
| 1777660445 | 30° C | 73% | 1003.7 hPa | - | - | - | - |
| 1777659621 | 30° C | 75% | 1003.9 hPa | - | - | - | - |
| 1777658890 | 30° C | 72% | 1004.1 hPa | - | - | - | - |
| 1777655943 | 30.56° C | 71% | 1004.3 hPa | - | - | - | - |
| 1777655043 | 30° C | 75% | 1004.5 hPa | - | - | - | - |
| 1777653337 | 31.11° C | 68% | 1004.6 hPa | - | - | - | - |
| 1777653242 | 31.11° C | 68% | 1004.6 hPa | - | - | - | - |
| 1777652342 | 30.56° C | 70% | 1004.7 hPa | - | - | - | - |
| 1777651442 | 31.11° C | 71% | 1004.6 hPa | - | - | - | - |
| 1777649697 | 31.11° C | 71% | 1004.8 hPa | - | - | - | - |
| 1777649642 | 31.11° C | 71% | 1004.8 hPa | - | - | - | - |
| 1777648820 | 30.56° C | 71% | 1005 hPa | - | - | - | - |
| 1777648742 | 30.56° C | 71% | 1005 hPa | - | - | - | - |
| 1777648091 | 30° C | 73% | 1005.1 hPa | - | - | - | - |
| 1777647844 | 30° C | 73% | 1005.1 hPa | - | - | - | - |
| 1777646214 | 30.56° C | 73% | 1004.7 hPa | - | - | - | - |
| 1777646042 | 30.56° C | 73% | 1004.7 hPa | - | - | - | - |
| 1777645142 | 30° C | 74% | 1004.5 hPa | - | - | - | - |
| 1777644424 | 30° C | 76% | 1004.5 hPa | - | - | - | - |
| 1777644243 | 30° C | 76% | 1004.5 hPa | - | - | - | - |
| 1777643429 | 30° C | 74% | 1004.3 hPa | - | - | - | - |
| 1777643377 | 30° C | 74% | 1004.3 hPa | - | - | - | - |
| 1777642443 | 30.56° C | 71% | 1004.1 hPa | - | - | - | - |
| 1777641636 | 30° C | 75% | 1004 hPa | - | - | - | - |
| 1777641543 | 30° C | 75% | 1004 hPa | - | - | - | - |
* Rain since midnight (hover to see other rain measurements)
** Current wind speed in m/s (hover to see current wind gust speed)